sensor_id;sensor_type;location;lat;lon;timestamp;P1;durP1;ratioP1;P2;durP2;ratioP2
36789;SDS011;22740;52.182;8.780;2024-01-30T00:00:41;14.40;;;9.48;;
36789;SDS011;22740;52.182;8.780;2024-01-30T00:06:46;13.20;;;8.80;;
36789;SDS011;22740;52.182;8.780;2024-01-30T00:12:48;14.73;;;10.18;;
36789;SDS011;22740;52.182;8.780;2024-01-30T00:18:53;16.88;;;10.50;;
36789;SDS011;22740;52.182;8.780;2024-01-30T00:24:55;15.05;;;10.18;;
36789;SDS011;22740;52.182;8.780;2024-01-30T00:30:57;12.90;;;10.02;;
36789;SDS011;22740;52.182;8.780;2024-01-30T00:36:59;14.88;;;10.77;;
36789;SDS011;22740;52.182;8.780;2024-01-30T00:43:01;14.55;;;9.93;;
36789;SDS011;22740;52.182;8.780;2024-01-30T00:49:02;14.27;;;9.88;;
36789;SDS011;22740;52.182;8.780;2024-01-30T00:55:05;13.10;;;9.48;;
36789;SDS011;22740;52.182;8.780;2024-01-30T01:01:07;14.30;;;9.88;;
36789;SDS011;22740;52.182;8.780;2024-01-30T01:07:09;14.98;;;9.48;;
36789;SDS011;22740;52.182;8.780;2024-01-30T01:13:12;14.90;;;9.88;;
36789;SDS011;22740;52.182;8.780;2024-01-30T01:19:14;15.90;;;10.90;;
36789;SDS011;22740;52.182;8.780;2024-01-30T01:25:16;17.92;;;10.85;;
36789;SDS011;22740;52.182;8.780;2024-01-30T01:31:18;15.30;;;10.48;;
36789;SDS011;22740;52.182;8.780;2024-01-30T01:37:20;12.57;;;10.57;;
36789;SDS011;22740;52.182;8.780;2024-01-30T01:43:23;15.13;;;10.77;;
36789;SDS011;22740;52.182;8.780;2024-01-30T01:49:26;14.32;;;11.63;;
36789;SDS011;22740;52.182;8.780;2024-01-30T01:55:29;14.63;;;11.25;;
36789;SDS011;22740;52.182;8.780;2024-01-30T02:01:32;14.85;;;11.05;;
36789;SDS011;22740;52.182;8.780;2024-01-30T02:07:35;11.82;;;9.68;;
36789;SDS011;22740;52.182;8.780;2024-01-30T02:13:37;12.05;;;10.10;;
36789;SDS011;22740;52.182;8.780;2024-01-30T02:19:39;13.85;;;11.40;;
36789;SDS011;22740;52.182;8.780;2024-01-30T02:25:42;49.70;;;46.47;;
36789;SDS011;22740;52.182;8.780;2024-01-30T02:31:47;57.65;;;53.95;;
36789;SDS011;22740;52.182;8.780;2024-01-30T02:37:49;51.30;;;47.90;;
36789;SDS011;22740;52.182;8.780;2024-01-30T02:43:51;56.65;;;53.20;;
36789;SDS011;22740;52.182;8.780;2024-01-30T02:49:53;65.07;;;61.08;;
36789;SDS011;22740;52.182;8.780;2024-01-30T02:55:57;68.28;;;64.38;;
36789;SDS011;22740;52.182;8.780;2024-01-30T03:01:59;70.07;;;66.03;;
36789;SDS011;22740;52.182;8.780;2024-01-30T03:08:01;75.93;;;71.47;;
36789;SDS011;22740;52.182;8.780;2024-01-30T03:14:03;70.18;;;66.13;;
36789;SDS011;22740;52.182;8.780;2024-01-30T03:20:05;75.63;;;71.28;;
36789;SDS011;22740;52.182;8.780;2024-01-30T03:26:08;79.38;;;74.88;;
36789;SDS011;22740;52.182;8.780;2024-01-30T03:32:10;83.82;;;79.15;;
36789;SDS011;22740;52.182;8.780;2024-01-30T03:38:12;89.53;;;84.47;;
36789;SDS011;22740;52.182;8.780;2024-01-30T03:44:14;85.85;;;81.15;;
36789;SDS011;22740;52.182;8.780;2024-01-30T03:50:16;93.72;;;88.53;;
36789;SDS011;22740;52.182;8.780;2024-01-30T03:56:18;91.13;;;86.07;;
36789;SDS011;22740;52.182;8.780;2024-01-30T04:02:21;89.88;;;84.72;;
36789;SDS011;22740;52.182;8.780;2024-01-30T04:08:23;89.57;;;84.65;;
36789;SDS011;22740;52.182;8.780;2024-01-30T04:14:25;91.43;;;86.45;;
36789;SDS011;22740;52.182;8.780;2024-01-30T04:20:27;93.30;;;87.85;;
36789;SDS011;22740;52.182;8.780;2024-01-30T04:26:29;93.07;;;87.80;;
36789;SDS011;22740;52.182;8.780;2024-01-30T04:32:31;92.03;;;86.93;;
36789;SDS011;22740;52.182;8.780;2024-01-30T04:38:33;96.05;;;90.65;;
36789;SDS011;22740;52.182;8.780;2024-01-30T04:44:35;92.80;;;87.45;;
36789;SDS011;22740;52.182;8.780;2024-01-30T04:50:37;92.13;;;87.05;;
36789;SDS011;22740;52.182;8.780;2024-01-30T04:56:39;92.25;;;87.22;;
36789;SDS011;22740;52.182;8.780;2024-01-30T05:02:41;92.10;;;87.13;;
36789;SDS011;22740;52.182;8.780;2024-01-30T05:08:43;91.50;;;86.38;;
36789;SDS011;22740;52.182;8.780;2024-01-30T05:14:44;93.70;;;88.40;;
36789;SDS011;22740;52.182;8.780;2024-01-30T05:20:46;89.38;;;84.28;;
36789;SDS011;22740;52.182;8.780;2024-01-30T05:26:48;84.95;;;80.18;;
36789;SDS011;22740;52.182;8.780;2024-01-30T05:32:52;94.07;;;88.80;;
36789;SDS011;22740;52.182;8.780;2024-01-30T05:38:55;85.40;;;80.55;;
36789;SDS011;22740;52.182;8.780;2024-01-30T05:44:57;81.32;;;76.63;;
36789;SDS011;22740;52.182;8.780;2024-01-30T05:50:59;78.95;;;74.45;;
36789;SDS011;22740;52.182;8.780;2024-01-30T05:57:01;76.13;;;71.38;;
36789;SDS011;22740;52.182;8.780;2024-01-30T06:03:03;80.00;;;75.22;;
36789;SDS011;22740;52.182;8.780;2024-01-30T06:09:05;82.85;;;78.15;;
36789;SDS011;22740;52.182;8.780;2024-01-30T06:15:10;87.45;;;82.45;;
36789;SDS011;22740;52.182;8.780;2024-01-30T06:21:14;84.57;;;79.90;;
36789;SDS011;22740;52.182;8.780;2024-01-30T06:27:15;88.95;;;83.95;;
36789;SDS011;22740;52.182;8.780;2024-01-30T06:33:18;88.43;;;83.50;;
36789;SDS011;22740;52.182;8.780;2024-01-30T06:39:21;88.00;;;83.03;;
36789;SDS011;22740;52.182;8.780;2024-01-30T06:45:23;89.22;;;84.25;;
36789;SDS011;22740;52.182;8.780;2024-01-30T06:51:24;87.75;;;82.65;;
36789;SDS011;22740;52.182;8.780;2024-01-30T06:57:26;89.18;;;84.07;;
36789;SDS011;22740;52.182;8.780;2024-01-30T07:03:29;90.60;;;85.40;;
36789;SDS011;22740;52.182;8.780;2024-01-30T07:09:31;90.90;;;85.80;;
36789;SDS011;22740;52.182;8.780;2024-01-30T07:15:33;92.20;;;87.10;;
36789;SDS011;22740;52.182;8.780;2024-01-30T07:21:35;86.40;;;81.65;;
36789;SDS011;22740;52.182;8.780;2024-01-30T07:27:37;86.38;;;81.47;;
36789;SDS011;22740;52.182;8.780;2024-01-30T07:33:38;85.72;;;80.93;;
36789;SDS011;22740;52.182;8.780;2024-01-30T07:39:41;91.65;;;86.78;;
36789;SDS011;22740;52.182;8.780;2024-01-30T07:45:44;94.53;;;89.35;;
36789;SDS011;22740;52.182;8.780;2024-01-30T07:51:46;94.00;;;88.93;;
36789;SDS011;22740;52.182;8.780;2024-01-30T07:57:47;94.88;;;89.75;;
36789;SDS011;22740;52.182;8.780;2024-01-30T08:03:53;92.25;;;87.32;;
36789;SDS011;22740;52.182;8.780;2024-01-30T08:09:54;92.05;;;86.95;;
36789;SDS011;22740;52.182;8.780;2024-01-30T08:15:56;93.05;;;87.85;;
36789;SDS011;22740;52.182;8.780;2024-01-30T08:21:58;92.50;;;87.40;;
36789;SDS011;22740;52.182;8.780;2024-01-30T08:28:01;92.22;;;87.22;;
36789;SDS011;22740;52.182;8.780;2024-01-30T08:34:03;93.57;;;88.47;;
36789;SDS011;22740;52.182;8.780;2024-01-30T08:40:05;89.63;;;84.50;;
36789;SDS011;22740;52.182;8.780;2024-01-30T08:46:10;89.43;;;84.63;;
36789;SDS011;22740;52.182;8.780;2024-01-30T08:52:12;97.57;;;92.28;;
36789;SDS011;22740;52.182;8.780;2024-01-30T08:58:15;103.00;;;97.50;;
36789;SDS011;22740;52.182;8.780;2024-01-30T09:04:19;108.43;;;102.53;;
36789;SDS011;22740;52.182;8.780;2024-01-30T09:10:26;104.80;;;99.25;;
36789;SDS011;22740;52.182;8.780;2024-01-30T09:16:28;96.20;;;91.07;;
36789;SDS011;22740;52.182;8.780;2024-01-30T09:22:30;97.38;;;92.13;;
36789;SDS011;22740;52.182;8.780;2024-01-30T09:28:32;96.30;;;91.05;;
36789;SDS011;22740;52.182;8.780;2024-01-30T09:34:34;97.75;;;92.22;;
36789;SDS011;22740;52.182;8.780;2024-01-30T09:40:37;92.82;;;88.03;;
36789;SDS011;22740;52.182;8.780;2024-01-30T09:46:39;93.43;;;88.40;;
36789;SDS011;22740;52.182;8.780;2024-01-30T09:52:47;94.22;;;89.22;;
36789;SDS011;22740;52.182;8.780;2024-01-30T09:58:49;89.88;;;85.28;;
36789;SDS011;22740;52.182;8.780;2024-01-30T10:04:51;90.97;;;86.07;;
36789;SDS011;22740;52.182;8.780;2024-01-30T10:10:53;90.10;;;85.30;;
36789;SDS011;22740;52.182;8.780;2024-01-30T10:16:57;94.20;;;89.07;;
36789;SDS011;22740;52.182;8.780;2024-01-30T10:22:59;98.80;;;93.63;;
36789;SDS011;22740;52.182;8.780;2024-01-30T10:29:01;97.18;;;92.00;;
36789;SDS011;22740;52.182;8.780;2024-01-30T10:35:03;95.20;;;90.30;;
36789;SDS011;22740;52.182;8.780;2024-01-30T10:41:06;95.13;;;90.15;;
36789;SDS011;22740;52.182;8.780;2024-01-30T10:47:11;95.38;;;90.43;;
36789;SDS011;22740;52.182;8.780;2024-01-30T10:53:14;91.80;;;87.03;;
36789;SDS011;22740;52.182;8.780;2024-01-30T10:59:19;86.03;;;81.43;;
36789;SDS011;22740;52.182;8.780;2024-01-30T11:05:25;84.90;;;80.30;;
36789;SDS011;22740;52.182;8.780;2024-01-30T11:11:49;82.88;;;78.68;;
36789;SDS011;22740;52.182;8.780;2024-01-30T11:18:02;87.80;;;82.97;;
36789;SDS011;22740;52.182;8.780;2024-01-30T11:24:04;89.18;;;84.55;;
36789;SDS011;22740;52.182;8.780;2024-01-30T11:30:07;88.45;;;83.75;;
36789;SDS011;22740;52.182;8.780;2024-01-30T11:36:10;97.65;;;92.80;;
36789;SDS011;22740;52.182;8.780;2024-01-30T11:42:14;99.68;;;94.38;;
36789;SDS011;22740;52.182;8.780;2024-01-30T11:48:16;98.25;;;93.38;;
36789;SDS011;22740;52.182;8.780;2024-01-30T11:54:19;94.65;;;89.82;;
36789;SDS011;22740;52.182;8.780;2024-01-30T12:00:23;103.22;;;98.20;;
36789;SDS011;22740;52.182;8.780;2024-01-30T12:06:26;104.50;;;99.20;;
36789;SDS011;22740;52.182;8.780;2024-01-30T12:12:29;101.55;;;96.45;;
36789;SDS011;22740;52.182;8.780;2024-01-30T12:18:31;96.47;;;91.47;;
36789;SDS011;22740;52.182;8.780;2024-01-30T12:24:33;93.85;;;89.05;;
36789;SDS011;22740;52.182;8.780;2024-01-30T12:30:36;97.55;;;92.50;;
36789;SDS011;22740;52.182;8.780;2024-01-30T12:36:38;94.95;;;90.20;;
36789;SDS011;22740;52.182;8.780;2024-01-30T12:42:41;98.38;;;93.30;;
36789;SDS011;22740;52.182;8.780;2024-01-30T12:48:44;96.93;;;91.53;;
36789;SDS011;22740;52.182;8.780;2024-01-30T12:54:46;102.70;;;97.57;;
36789;SDS011;22740;52.182;8.780;2024-01-30T13:00:52;102.90;;;97.60;;
36789;SDS011;22740;52.182;8.780;2024-01-30T13:06:55;99.32;;;93.88;;
36789;SDS011;22740;52.182;8.780;2024-01-30T13:12:59;99.93;;;94.38;;
36789;SDS011;22740;52.182;8.780;2024-01-30T13:19:01;93.18;;;88.07;;
36789;SDS011;22740;52.182;8.780;2024-01-30T13:25:03;97.60;;;92.57;;
36789;SDS011;22740;52.182;8.780;2024-01-30T13:31:06;104.97;;;99.45;;
36789;SDS011;22740;52.182;8.780;2024-01-30T13:37:08;101.45;;;96.38;;
36789;SDS011;22740;52.182;8.780;2024-01-30T13:43:10;103.47;;;98.30;;
36789;SDS011;22740;52.182;8.780;2024-01-30T13:49:12;107.22;;;101.50;;
36789;SDS011;22740;52.182;8.780;2024-01-30T13:55:14;110.25;;;104.68;;
36789;SDS011;22740;52.182;8.780;2024-01-30T14:01:16;110.88;;;105.00;;
36789;SDS011;22740;52.182;8.780;2024-01-30T14:07:19;112.75;;;106.85;;
36789;SDS011;22740;52.182;8.780;2024-01-30T14:13:21;114.28;;;108.25;;
36789;SDS011;22740;52.182;8.780;2024-01-30T14:19:24;115.90;;;109.70;;
36789;SDS011;22740;52.182;8.780;2024-01-30T14:25:25;114.47;;;108.38;;
36789;SDS011;22740;52.182;8.780;2024-01-30T14:31:27;115.68;;;109.63;;
36789;SDS011;22740;52.182;8.780;2024-01-30T14:37:29;119.22;;;112.93;;
36789;SDS011;22740;52.182;8.780;2024-01-30T14:43:31;124.85;;;118.32;;
36789;SDS011;22740;52.182;8.780;2024-01-30T14:49:34;119.80;;;113.40;;
36789;SDS011;22740;52.182;8.780;2024-01-30T14:55:36;121.70;;;115.28;;
36789;SDS011;22740;52.182;8.780;2024-01-30T15:01:38;113.45;;;107.53;;
36789;SDS011;22740;52.182;8.780;2024-01-30T15:07:40;110.30;;;104.20;;
36789;SDS011;22740;52.182;8.780;2024-01-30T15:13:42;105.45;;;99.72;;
36789;SDS011;22740;52.182;8.780;2024-01-30T15:19:44;104.35;;;98.70;;
36789;SDS011;22740;52.182;8.780;2024-01-30T15:25:46;103.07;;;97.57;;
36789;SDS011;22740;52.182;8.780;2024-01-30T15:31:48;97.72;;;92.10;;
36789;SDS011;22740;52.182;8.780;2024-01-30T15:37:50;96.68;;;91.35;;
36789;SDS011;22740;52.182;8.780;2024-01-30T15:43:52;96.63;;;91.53;;
36789;SDS011;22740;52.182;8.780;2024-01-30T15:49:54;94.72;;;89.60;;
36789;SDS011;22740;52.182;8.780;2024-01-30T15:55:56;95.55;;;90.25;;
36789;SDS011;22740;52.182;8.780;2024-01-30T16:01:58;93.32;;;88.18;;
36789;SDS011;22740;52.182;8.780;2024-01-30T16:08:01;92.20;;;86.90;;
36789;SDS011;22740;52.182;8.780;2024-01-30T16:14:03;86.57;;;81.55;;
36789;SDS011;22740;52.182;8.780;2024-01-30T16:20:05;87.40;;;82.63;;
36789;SDS011;22740;52.182;8.780;2024-01-30T16:26:08;90.38;;;85.18;;
36789;SDS011;22740;52.182;8.780;2024-01-30T16:32:10;93.70;;;88.55;;
36789;SDS011;22740;52.182;8.780;2024-01-30T16:38:12;94.53;;;89.20;;
36789;SDS011;22740;52.182;8.780;2024-01-30T16:44:14;94.85;;;89.63;;
36789;SDS011;22740;52.182;8.780;2024-01-30T16:50:16;97.53;;;91.93;;
36789;SDS011;22740;52.182;8.780;2024-01-30T16:56:18;98.25;;;92.60;;
36789;SDS011;22740;52.182;8.780;2024-01-30T17:02:19;87.50;;;82.45;;
36789;SDS011;22740;52.182;8.780;2024-01-30T17:08:21;80.43;;;75.93;;
36789;SDS011;22740;52.182;8.780;2024-01-30T17:14:23;69.45;;;65.55;;
36789;SDS011;22740;52.182;8.780;2024-01-30T17:20:25;74.70;;;70.60;;
36789;SDS011;22740;52.182;8.780;2024-01-30T17:26:27;60.55;;;57.15;;
36789;SDS011;22740;52.182;8.780;2024-01-30T17:32:30;60.03;;;56.83;;
36789;SDS011;22740;52.182;8.780;2024-01-30T17:38:32;58.53;;;55.35;;
36789;SDS011;22740;52.182;8.780;2024-01-30T17:44:34;57.22;;;53.90;;
36789;SDS011;22740;52.182;8.780;2024-01-30T17:50:41;56.22;;;53.22;;
36789;SDS011;22740;52.182;8.780;2024-01-30T17:56:46;58.75;;;55.25;;
36789;SDS011;22740;52.182;8.780;2024-01-30T18:02:48;57.50;;;54.50;;
36789;SDS011;22740;52.182;8.780;2024-01-30T18:08:49;55.03;;;52.03;;
36789;SDS011;22740;52.182;8.780;2024-01-30T18:14:51;52.08;;;48.97;;
36789;SDS011;22740;52.182;8.780;2024-01-30T18:20:53;58.97;;;55.67;;
36789;SDS011;22740;52.182;8.780;2024-01-30T18:26:55;54.60;;;51.47;;
36789;SDS011;22740;52.182;8.780;2024-01-30T18:32:57;52.90;;;50.00;;
36789;SDS011;22740;52.182;8.780;2024-01-30T18:38:59;55.70;;;52.60;;
36789;SDS011;22740;52.182;8.780;2024-01-30T18:45:01;55.10;;;51.92;;
36789;SDS011;22740;52.182;8.780;2024-01-30T18:51:04;58.42;;;55.35;;
36789;SDS011;22740;52.182;8.780;2024-01-30T18:57:07;53.80;;;51.00;;
36789;SDS011;22740;52.182;8.780;2024-01-30T19:03:09;47.83;;;45.22;;
36789;SDS011;22740;52.182;8.780;2024-01-30T19:09:11;54.72;;;51.83;;
36789;SDS011;22740;52.182;8.780;2024-01-30T19:15:13;56.97;;;54.05;;
36789;SDS011;22740;52.182;8.780;2024-01-30T19:21:15;50.25;;;47.55;;
36789;SDS011;22740;52.182;8.780;2024-01-30T19:27:17;55.80;;;52.80;;
36789;SDS011;22740;52.182;8.780;2024-01-30T19:33:19;64.90;;;61.58;;
36789;SDS011;22740;52.182;8.780;2024-01-30T19:39:21;54.92;;;52.13;;
36789;SDS011;22740;52.182;8.780;2024-01-30T19:45:24;56.10;;;53.17;;
36789;SDS011;22740;52.182;8.780;2024-01-30T19:51:26;59.03;;;56.03;;
36789;SDS011;22740;52.182;8.780;2024-01-30T19:57:28;67.40;;;63.80;;
36789;SDS011;22740;52.182;8.780;2024-01-30T20:03:29;58.00;;;54.83;;
36789;SDS011;22740;52.182;8.780;2024-01-30T20:09:31;60.13;;;56.95;;
36789;SDS011;22740;52.182;8.780;2024-01-30T20:15:33;58.15;;;55.05;;
36789;SDS011;22740;52.182;8.780;2024-01-30T20:21:35;57.90;;;54.80;;
36789;SDS011;22740;52.182;8.780;2024-01-30T20:27:38;58.08;;;54.88;;
36789;SDS011;22740;52.182;8.780;2024-01-30T20:33:40;59.08;;;55.78;;
36789;SDS011;22740;52.182;8.780;2024-01-30T20:39:42;56.22;;;53.03;;
36789;SDS011;22740;52.182;8.780;2024-01-30T20:45:44;56.10;;;52.97;;
36789;SDS011;22740;52.182;8.780;2024-01-30T20:51:46;56.83;;;53.53;;
36789;SDS011;22740;52.182;8.780;2024-01-30T20:57:48;53.13;;;49.97;;
36789;SDS011;22740;52.182;8.780;2024-01-30T21:03:49;54.50;;;51.40;;
36789;SDS011;22740;52.182;8.780;2024-01-30T21:09:51;52.00;;;49.05;;
36789;SDS011;22740;52.182;8.780;2024-01-30T21:15:53;49.63;;;46.72;;
36789;SDS011;22740;52.182;8.780;2024-01-30T21:21:55;54.58;;;51.47;;
36789;SDS011;22740;52.182;8.780;2024-01-30T21:27:57;53.75;;;50.58;;
36789;SDS011;22740;52.182;8.780;2024-01-30T21:33:59;55.85;;;52.45;;
36789;SDS011;22740;52.182;8.780;2024-01-30T21:40:01;53.35;;;50.05;;
36789;SDS011;22740;52.182;8.780;2024-01-30T21:46:05;45.97;;;43.17;;
36789;SDS011;22740;52.182;8.780;2024-01-30T21:52:08;48.85;;;45.85;;
36789;SDS011;22740;52.182;8.780;2024-01-30T21:58:10;49.45;;;46.45;;
36789;SDS011;22740;52.182;8.780;2024-01-30T22:04:12;51.85;;;48.65;;
36789;SDS011;22740;52.182;8.780;2024-01-30T22:10:14;59.58;;;56.15;;
36789;SDS011;22740;52.182;8.780;2024-01-30T22:16:16;66.28;;;62.42;;
36789;SDS011;22740;52.182;8.780;2024-01-30T22:22:18;61.05;;;57.42;;
36789;SDS011;22740;52.182;8.780;2024-01-30T22:28:20;54.17;;;51.22;;
36789;SDS011;22740;52.182;8.780;2024-01-30T22:34:22;45.88;;;43.42;;
36789;SDS011;22740;52.182;8.780;2024-01-30T22:40:24;43.22;;;40.97;;
36789;SDS011;22740;52.182;8.780;2024-01-30T22:46:26;43.50;;;41.10;;
36789;SDS011;22740;52.182;8.780;2024-01-30T22:52:28;45.65;;;43.35;;
36789;SDS011;22740;52.182;8.780;2024-01-30T22:58:30;40.60;;;38.30;;
36789;SDS011;22740;52.182;8.780;2024-01-30T23:04:32;38.47;;;36.30;;
36789;SDS011;22740;52.182;8.780;2024-01-30T23:10:35;43.28;;;41.03;;
36789;SDS011;22740;52.182;8.780;2024-01-30T23:16:37;43.90;;;41.50;;
36789;SDS011;22740;52.182;8.780;2024-01-30T23:22:39;44.00;;;41.50;;
36789;SDS011;22740;52.182;8.780;2024-01-30T23:28:41;43.72;;;41.22;;
36789;SDS011;22740;52.182;8.780;2024-01-30T23:34:43;48.45;;;45.85;;
36789;SDS011;22740;52.182;8.780;2024-01-30T23:40:45;42.58;;;40.38;;
36789;SDS011;22740;52.182;8.780;2024-01-30T23:46:49;45.38;;;43.00;;
36789;SDS011;22740;52.182;8.780;2024-01-30T23:52:51;41.67;;;39.33;;
36789;SDS011;22740;52.182;8.780;2024-01-30T23:58:53;40.78;;;38.63;;
